sensor_id;sensor_type;location;lat;lon;timestamp;P1;durP1;ratioP1;P2;durP2;ratioP2
21103;SDS011;10710;53.398;-1.514;2022-11-20T00:01:11;21.38;;;7.70;;
21103;SDS011;10710;53.398;-1.514;2022-11-20T00:03:40;18.35;;;8.07;;
21103;SDS011;10710;53.398;-1.514;2022-11-20T00:06:08;13.23;;;6.72;;
21103;SDS011;10710;53.398;-1.514;2022-11-20T00:08:41;18.92;;;7.95;;
21103;SDS011;10710;53.398;-1.514;2022-11-20T00:11:12;18.17;;;7.40;;
21103;SDS011;10710;53.398;-1.514;2022-11-20T00:13:40;16.23;;;6.63;;
21103;SDS011;10710;53.398;-1.514;2022-11-20T00:16:09;14.95;;;7.47;;
21103;SDS011;10710;53.398;-1.514;2022-11-20T00:18:36;18.65;;;7.47;;
21103;SDS011;10710;53.398;-1.514;2022-11-20T00:21:03;18.13;;;6.77;;
21103;SDS011;10710;53.398;-1.514;2022-11-20T00:23:35;26.05;;;10.27;;
21103;SDS011;10710;53.398;-1.514;2022-11-20T00:26:02;17.27;;;7.88;;
21103;SDS011;10710;53.398;-1.514;2022-11-20T00:28:29;16.77;;;7.32;;
21103;SDS011;10710;53.398;-1.514;2022-11-20T00:31:02;15.63;;;7.70;;
21103;SDS011;10710;53.398;-1.514;2022-11-20T00:33:30;16.15;;;7.22;;
21103;SDS011;10710;53.398;-1.514;2022-11-20T00:36:03;16.77;;;8.07;;
21103;SDS011;10710;53.398;-1.514;2022-11-20T00:38:31;17.38;;;8.30;;
21103;SDS011;10710;53.398;-1.514;2022-11-20T00:40:58;15.30;;;7.03;;
21103;SDS011;10710;53.398;-1.514;2022-11-20T00:43:26;19.48;;;7.50;;
21103;SDS011;10710;53.398;-1.514;2022-11-20T00:45:56;19.08;;;9.15;;
21103;SDS011;10710;53.398;-1.514;2022-11-20T00:48:26;19.63;;;7.72;;
21103;SDS011;10710;53.398;-1.514;2022-11-20T00:50:53;21.17;;;7.28;;
21103;SDS011;10710;53.398;-1.514;2022-11-20T00:53:19;15.85;;;7.03;;
21103;SDS011;10710;53.398;-1.514;2022-11-20T00:56:19;19.50;;;7.82;;
21103;SDS011;10710;53.398;-1.514;2022-11-20T00:58:41;17.50;;;7.65;;
21103;SDS011;10710;53.398;-1.514;2022-11-20T01:01:12;15.65;;;7.07;;
21103;SDS011;10710;53.398;-1.514;2022-11-20T01:03:41;17.92;;;7.97;;
21103;SDS011;10710;53.398;-1.514;2022-11-20T01:08:37;20.33;;;7.13;;
21103;SDS011;10710;53.398;-1.514;2022-11-20T01:11:05;20.67;;;8.07;;
21103;SDS011;10710;53.398;-1.514;2022-11-20T01:13:35;23.48;;;8.27;;
21103;SDS011;10710;53.398;-1.514;2022-11-20T01:16:06;15.10;;;7.68;;
21103;SDS011;10710;53.398;-1.514;2022-11-20T01:18:33;19.40;;;7.68;;
21103;SDS011;10710;53.398;-1.514;2022-11-20T01:21:04;18.60;;;7.97;;
21103;SDS011;10710;53.398;-1.514;2022-11-20T01:23:33;20.90;;;8.10;;
21103;SDS011;10710;53.398;-1.514;2022-11-20T01:26:00;21.73;;;8.30;;
21103;SDS011;10710;53.398;-1.514;2022-11-20T01:28:31;17.85;;;7.95;;
21103;SDS011;10710;53.398;-1.514;2022-11-20T01:30:58;17.30;;;7.68;;
21103;SDS011;10710;53.398;-1.514;2022-11-20T01:33:24;19.13;;;7.47;;
21103;SDS011;10710;53.398;-1.514;2022-11-20T01:35:51;18.08;;;7.85;;
21103;SDS011;10710;53.398;-1.514;2022-11-20T01:38:18;20.17;;;7.47;;
21103;SDS011;10710;53.398;-1.514;2022-11-20T01:40:45;18.67;;;7.95;;
21103;SDS011;10710;53.398;-1.514;2022-11-20T01:43:20;16.42;;;6.88;;
21103;SDS011;10710;53.398;-1.514;2022-11-20T01:51:19;19.37;;;7.53;;
21103;SDS011;10710;53.398;-1.514;2022-11-20T01:53:48;16.40;;;7.43;;
21103;SDS011;10710;53.398;-1.514;2022-11-20T01:56:17;19.33;;;7.38;;
21103;SDS011;10710;53.398;-1.514;2022-11-20T01:58:49;18.25;;;7.18;;
21103;SDS011;10710;53.398;-1.514;2022-11-20T02:01:22;15.07;;;7.70;;
21103;SDS011;10710;53.398;-1.514;2022-11-20T02:03:49;12.55;;;7.05;;
21103;SDS011;10710;53.398;-1.514;2022-11-20T02:06:29;18.52;;;7.82;;
21103;SDS011;10710;53.398;-1.514;2022-11-20T02:09:06;14.48;;;6.57;;
21103;SDS011;10710;53.398;-1.514;2022-11-20T02:11:31;14.27;;;6.47;;
21103;SDS011;10710;53.398;-1.514;2022-11-20T02:13:57;14.87;;;6.83;;
21103;SDS011;10710;53.398;-1.514;2022-11-20T02:19:01;20.52;;;6.50;;
21103;SDS011;10710;53.398;-1.514;2022-11-20T02:26:41;13.35;;;6.40;;
21103;SDS011;10710;53.398;-1.514;2022-11-20T02:29:24;15.75;;;6.20;;
21103;SDS011;10710;53.398;-1.514;2022-11-20T02:32:06;16.27;;;6.47;;
21103;SDS011;10710;53.398;-1.514;2022-11-20T02:34:42;15.75;;;6.65;;
21103;SDS011;10710;53.398;-1.514;2022-11-20T02:37:08;18.00;;;6.30;;
21103;SDS011;10710;53.398;-1.514;2022-11-20T02:39:34;13.40;;;6.18;;
21103;SDS011;10710;53.398;-1.514;2022-11-20T02:42:00;10.95;;;5.80;;
21103;SDS011;10710;53.398;-1.514;2022-11-20T02:44:27;13.25;;;5.97;;
21103;SDS011;10710;53.398;-1.514;2022-11-20T02:46:53;15.07;;;5.28;;
21103;SDS011;10710;53.398;-1.514;2022-11-20T02:49:23;13.10;;;5.15;;
21103;SDS011;10710;53.398;-1.514;2022-11-20T02:51:50;12.38;;;5.75;;
21103;SDS011;10710;53.398;-1.514;2022-11-20T02:54:16;14.95;;;5.18;;
21103;SDS011;10710;53.398;-1.514;2022-11-20T02:56:42;13.25;;;5.75;;
21103;SDS011;10710;53.398;-1.514;2022-11-20T02:59:08;9.68;;;4.88;;
21103;SDS011;10710;53.398;-1.514;2022-11-20T03:01:35;14.55;;;5.32;;
21103;SDS011;10710;53.398;-1.514;2022-11-20T03:04:01;14.30;;;4.88;;
21103;SDS011;10710;53.398;-1.514;2022-11-20T03:06:28;10.95;;;4.97;;
21103;SDS011;10710;53.398;-1.514;2022-11-20T03:08:54;14.15;;;6.55;;
21103;SDS011;10710;53.398;-1.514;2022-11-20T03:11:20;15.80;;;5.47;;
21103;SDS011;10710;53.398;-1.514;2022-11-20T03:13:46;10.05;;;4.75;;
21103;SDS011;10710;53.398;-1.514;2022-11-20T03:16:14;10.23;;;4.60;;
21103;SDS011;10710;53.398;-1.514;2022-11-20T03:18:42;11.18;;;5.15;;
21103;SDS011;10710;53.398;-1.514;2022-11-20T03:21:08;13.48;;;4.85;;
21103;SDS011;10710;53.398;-1.514;2022-11-20T03:23:35;12.13;;;5.07;;
21103;SDS011;10710;53.398;-1.514;2022-11-20T03:28:37;10.10;;;4.22;;
21103;SDS011;10710;53.398;-1.514;2022-11-20T03:31:07;11.73;;;4.57;;
21103;SDS011;10710;53.398;-1.514;2022-11-20T03:33:38;13.13;;;5.03;;
21103;SDS011;10710;53.398;-1.514;2022-11-20T03:36:05;13.38;;;4.32;;
21103;SDS011;10710;53.398;-1.514;2022-11-20T03:38:33;14.57;;;4.70;;
21103;SDS011;10710;53.398;-1.514;2022-11-20T03:41:04;8.48;;;4.35;;
21103;SDS011;10710;53.398;-1.514;2022-11-20T03:43:34;7.73;;;3.93;;
21103;SDS011;10710;53.398;-1.514;2022-11-20T03:46:00;10.90;;;4.15;;
21103;SDS011;10710;53.398;-1.514;2022-11-20T03:48:27;9.60;;;3.95;;
21103;SDS011;10710;53.398;-1.514;2022-11-20T03:50:53;8.63;;;3.45;;
21103;SDS011;10710;53.398;-1.514;2022-11-20T03:53:32;7.50;;;3.87;;
21103;SDS011;10710;53.398;-1.514;2022-11-20T03:55:58;8.23;;;3.20;;
21103;SDS011;10710;53.398;-1.514;2022-11-20T03:58:24;7.47;;;3.72;;
21103;SDS011;10710;53.398;-1.514;2022-11-20T04:00:49;11.32;;;3.50;;
21103;SDS011;10710;53.398;-1.514;2022-11-20T04:03:15;8.57;;;3.63;;
21103;SDS011;10710;53.398;-1.514;2022-11-20T04:05:41;9.18;;;3.85;;
21103;SDS011;10710;53.398;-1.514;2022-11-20T04:08:07;7.80;;;2.97;;
21103;SDS011;10710;53.398;-1.514;2022-11-20T04:10:33;8.40;;;3.45;;
21103;SDS011;10710;53.398;-1.514;2022-11-20T04:12:59;8.88;;;3.60;;
21103;SDS011;10710;53.398;-1.514;2022-11-20T04:15:24;7.10;;;3.17;;
21103;SDS011;10710;53.398;-1.514;2022-11-20T04:17:50;5.38;;;3.22;;
21103;SDS011;10710;53.398;-1.514;2022-11-20T04:20:16;14.95;;;3.45;;
21103;SDS011;10710;53.398;-1.514;2022-11-20T04:22:42;5.50;;;2.55;;
21103;SDS011;10710;53.398;-1.514;2022-11-20T04:25:08;6.43;;;2.47;;
21103;SDS011;10710;53.398;-1.514;2022-11-20T04:27:34;6.78;;;2.55;;
21103;SDS011;10710;53.398;-1.514;2022-11-20T04:30:00;6.53;;;1.92;;
21103;SDS011;10710;53.398;-1.514;2022-11-20T04:32:27;7.40;;;2.05;;
21103;SDS011;10710;53.398;-1.514;2022-11-20T04:34:53;6.55;;;1.88;;
21103;SDS011;10710;53.398;-1.514;2022-11-20T04:37:19;2.72;;;1.48;;
21103;SDS011;10710;53.398;-1.514;2022-11-20T04:39:45;3.73;;;1.73;;
21103;SDS011;10710;53.398;-1.514;2022-11-20T04:42:10;3.80;;;2.07;;
21103;SDS011;10710;53.398;-1.514;2022-11-20T04:44:55;3.83;;;1.75;;
21103;SDS011;10710;53.398;-1.514;2022-11-20T04:47:22;2.35;;;1.63;;
21103;SDS011;10710;53.398;-1.514;2022-11-20T04:49:48;4.35;;;1.90;;
21103;SDS011;10710;53.398;-1.514;2022-11-20T04:52:14;2.90;;;1.50;;
21103;SDS011;10710;53.398;-1.514;2022-11-20T04:54:39;4.47;;;1.90;;
21103;SDS011;10710;53.398;-1.514;2022-11-20T04:57:06;6.20;;;1.83;;
21103;SDS011;10710;53.398;-1.514;2022-11-20T04:59:32;3.50;;;2.00;;
21103;SDS011;10710;53.398;-1.514;2022-11-20T05:01:58;3.00;;;1.53;;
21103;SDS011;10710;53.398;-1.514;2022-11-20T05:04:24;4.23;;;1.70;;
21103;SDS011;10710;53.398;-1.514;2022-11-20T05:06:49;2.60;;;1.75;;
21103;SDS011;10710;53.398;-1.514;2022-11-20T05:09:15;2.42;;;1.30;;
21103;SDS011;10710;53.398;-1.514;2022-11-20T05:11:41;1.70;;;1.00;;
21103;SDS011;10710;53.398;-1.514;2022-11-20T05:14:07;3.97;;;1.40;;
21103;SDS011;10710;53.398;-1.514;2022-11-20T05:16:33;2.58;;;1.00;;
21103;SDS011;10710;53.398;-1.514;2022-11-20T05:19:01;1.95;;;1.20;;
21103;SDS011;10710;53.398;-1.514;2022-11-20T05:21:27;1.52;;;1.08;;
21103;SDS011;10710;53.398;-1.514;2022-11-20T05:23:55;3.92;;;1.58;;
21103;SDS011;10710;53.398;-1.514;2022-11-20T05:26:21;1.60;;;1.10;;
21103;SDS011;10710;53.398;-1.514;2022-11-20T05:28:48;1.80;;;0.90;;
21103;SDS011;10710;53.398;-1.514;2022-11-20T05:31:15;1.33;;;1.02;;
21103;SDS011;10710;53.398;-1.514;2022-11-20T05:33:44;2.38;;;1.08;;
21103;SDS011;10710;53.398;-1.514;2022-11-20T05:36:11;2.47;;;1.08;;
21103;SDS011;10710;53.398;-1.514;2022-11-20T05:38:38;2.15;;;1.10;;
21103;SDS011;10710;53.398;-1.514;2022-11-20T05:41:09;1.35;;;1.10;;
21103;SDS011;10710;53.398;-1.514;2022-11-20T05:43:36;2.17;;;0.83;;
21103;SDS011;10710;53.398;-1.514;2022-11-20T05:46:03;1.90;;;1.00;;
21103;SDS011;10710;53.398;-1.514;2022-11-20T05:48:31;1.57;;;0.87;;
21103;SDS011;10710;53.398;-1.514;2022-11-20T05:50:58;2.13;;;0.98;;
21103;SDS011;10710;53.398;-1.514;2022-11-20T05:53:25;3.70;;;0.90;;
21103;SDS011;10710;53.398;-1.514;2022-11-20T05:56:04;3.58;;;1.02;;
21103;SDS011;10710;53.398;-1.514;2022-11-20T05:58:42;2.00;;;0.90;;
21103;SDS011;10710;53.398;-1.514;2022-11-20T06:03:37;1.80;;;0.80;;
21103;SDS011;10710;53.398;-1.514;2022-11-20T06:06:04;1.10;;;0.82;;
21103;SDS011;10710;53.398;-1.514;2022-11-20T06:08:31;0.52;;;0.52;;
21103;SDS011;10710;53.398;-1.514;2022-11-20T06:10:58;0.90;;;0.70;;
21103;SDS011;10710;53.398;-1.514;2022-11-20T06:13:27;0.50;;;0.50;;
21103;SDS011;10710;53.398;-1.514;2022-11-20T06:15:53;0.50;;;0.50;;
21103;SDS011;10710;53.398;-1.514;2022-11-20T06:18:19;0.73;;;0.40;;
21103;SDS011;10710;53.398;-1.514;2022-11-20T06:20:46;2.13;;;0.70;;
21103;SDS011;10710;53.398;-1.514;2022-11-20T06:23:12;1.30;;;0.75;;
21103;SDS011;10710;53.398;-1.514;2022-11-20T06:25:39;0.50;;;0.50;;
21103;SDS011;10710;53.398;-1.514;2022-11-20T06:28:06;0.40;;;0.40;;
21103;SDS011;10710;53.398;-1.514;2022-11-20T06:30:32;0.60;;;0.50;;
21103;SDS011;10710;53.398;-1.514;2022-11-20T06:32:58;0.73;;;0.60;;
21103;SDS011;10710;53.398;-1.514;2022-11-20T06:35:24;0.60;;;0.50;;
21103;SDS011;10710;53.398;-1.514;2022-11-20T06:37:50;0.50;;;0.50;;
21103;SDS011;10710;53.398;-1.514;2022-11-20T06:40:16;0.40;;;0.40;;
21103;SDS011;10710;53.398;-1.514;2022-11-20T06:42:43;0.50;;;0.50;;
21103;SDS011;10710;53.398;-1.514;2022-11-20T06:45:09;1.08;;;0.60;;
21103;SDS011;10710;53.398;-1.514;2022-11-20T06:47:35;1.10;;;0.60;;
21103;SDS011;10710;53.398;-1.514;2022-11-20T06:50:01;0.60;;;0.60;;
21103;SDS011;10710;53.398;-1.514;2022-11-20T06:52:26;0.70;;;0.60;;
21103;SDS011;10710;53.398;-1.514;2022-11-20T06:54:52;0.70;;;0.70;;
21103;SDS011;10710;53.398;-1.514;2022-11-20T06:57:19;0.75;;;0.70;;
21103;SDS011;10710;53.398;-1.514;2022-11-20T06:59:44;0.88;;;0.70;;
21103;SDS011;10710;53.398;-1.514;2022-11-20T07:02:10;1.70;;;0.80;;
21103;SDS011;10710;53.398;-1.514;2022-11-20T07:04:37;2.75;;;0.88;;
21103;SDS011;10710;53.398;-1.514;2022-11-20T07:07:04;2.40;;;0.77;;
21103;SDS011;10710;53.398;-1.514;2022-11-20T07:09:32;0.82;;;0.73;;
21103;SDS011;10710;53.398;-1.514;2022-11-20T07:11:58;0.70;;;0.60;;
21103;SDS011;10710;53.398;-1.514;2022-11-20T07:14:24;1.40;;;0.80;;
21103;SDS011;10710;53.398;-1.514;2022-11-20T07:16:51;0.80;;;0.63;;
21103;SDS011;10710;53.398;-1.514;2022-11-20T07:19:17;0.75;;;0.70;;
21103;SDS011;10710;53.398;-1.514;2022-11-20T07:21:43;1.40;;;0.82;;
21103;SDS011;10710;53.398;-1.514;2022-11-20T07:24:09;1.00;;;0.88;;
21103;SDS011;10710;53.398;-1.514;2022-11-20T07:26:35;1.48;;;0.80;;
21103;SDS011;10710;53.398;-1.514;2022-11-20T07:29:01;5.20;;;0.90;;
21103;SDS011;10710;53.398;-1.514;2022-11-20T07:31:27;0.80;;;0.77;;
21103;SDS011;10710;53.398;-1.514;2022-11-20T07:33:53;1.43;;;0.83;;
21103;SDS011;10710;53.398;-1.514;2022-11-20T07:36:18;1.07;;;0.83;;
21103;SDS011;10710;53.398;-1.514;2022-11-20T07:38:44;2.33;;;0.90;;
21103;SDS011;10710;53.398;-1.514;2022-11-20T07:41:10;2.03;;;1.02;;
21103;SDS011;10710;53.398;-1.514;2022-11-20T07:43:36;9.68;;;1.20;;
21103;SDS011;10710;53.398;-1.514;2022-11-20T07:46:02;1.63;;;0.90;;
21103;SDS011;10710;53.398;-1.514;2022-11-20T07:48:29;3.60;;;0.93;;
21103;SDS011;10710;53.398;-1.514;2022-11-20T07:50:55;1.70;;;0.85;;
21103;SDS011;10710;53.398;-1.514;2022-11-20T07:53:22;2.08;;;0.90;;
21103;SDS011;10710;53.398;-1.514;2022-11-20T07:55:49;1.27;;;0.80;;
21103;SDS011;10710;53.398;-1.514;2022-11-20T07:58:17;1.30;;;0.93;;
21103;SDS011;10710;53.398;-1.514;2022-11-20T08:00:46;3.63;;;0.98;;
21103;SDS011;10710;53.398;-1.514;2022-11-20T08:03:12;1.25;;;0.93;;
21103;SDS011;10710;53.398;-1.514;2022-11-20T08:05:38;2.00;;;1.10;;
21103;SDS011;10710;53.398;-1.514;2022-11-20T08:08:03;1.63;;;1.10;;
21103;SDS011;10710;53.398;-1.514;2022-11-20T08:10:30;1.75;;;1.05;;
21103;SDS011;10710;53.398;-1.514;2022-11-20T08:12:55;3.13;;;1.48;;
21103;SDS011;10710;53.398;-1.514;2022-11-20T08:15:40;2.23;;;1.00;;
21103;SDS011;10710;53.398;-1.514;2022-11-20T08:18:07;2.27;;;1.13;;
21103;SDS011;10710;53.398;-1.514;2022-11-20T08:20:36;2.28;;;0.90;;
21103;SDS011;10710;53.398;-1.514;2022-11-20T08:23:03;1.90;;;1.08;;
21103;SDS011;10710;53.398;-1.514;2022-11-20T08:25:33;3.63;;;1.50;;
21103;SDS011;10710;53.398;-1.514;2022-11-20T08:28:02;4.35;;;1.92;;
21103;SDS011;10710;53.398;-1.514;2022-11-20T08:30:33;1.42;;;1.00;;
21103;SDS011;10710;53.398;-1.514;2022-11-20T08:33:03;3.28;;;1.65;;
21103;SDS011;10710;53.398;-1.514;2022-11-20T08:35:34;4.57;;;2.13;;
21103;SDS011;10710;53.398;-1.514;2022-11-20T08:38:02;9.93;;;3.67;;
21103;SDS011;10710;53.398;-1.514;2022-11-20T08:40:28;4.53;;;2.63;;
21103;SDS011;10710;53.398;-1.514;2022-11-20T08:42:55;4.10;;;1.67;;
21103;SDS011;10710;53.398;-1.514;2022-11-20T08:45:21;5.95;;;1.88;;
21103;SDS011;10710;53.398;-1.514;2022-11-20T08:47:47;5.85;;;1.88;;
21103;SDS011;10710;53.398;-1.514;2022-11-20T08:50:14;2.65;;;1.95;;
21103;SDS011;10710;53.398;-1.514;2022-11-20T08:52:41;2.20;;;1.25;;
21103;SDS011;10710;53.398;-1.514;2022-11-20T08:55:08;3.83;;;1.83;;
21103;SDS011;10710;53.398;-1.514;2022-11-20T08:57:35;2.35;;;1.30;;
21103;SDS011;10710;53.398;-1.514;2022-11-20T09:00:03;3.13;;;1.70;;
21103;SDS011;10710;53.398;-1.514;2022-11-20T09:02:30;3.58;;;1.30;;
21103;SDS011;10710;53.398;-1.514;2022-11-20T09:04:57;4.50;;;1.77;;
21103;SDS011;10710;53.398;-1.514;2022-11-20T09:07:23;5.10;;;1.10;;
21103;SDS011;10710;53.398;-1.514;2022-11-20T09:09:50;2.95;;;1.30;;
21103;SDS011;10710;53.398;-1.514;2022-11-20T09:12:16;4.70;;;1.58;;
21103;SDS011;10710;53.398;-1.514;2022-11-20T09:14:42;4.77;;;1.23;;
21103;SDS011;10710;53.398;-1.514;2022-11-20T09:17:09;8.83;;;1.90;;
21103;SDS011;10710;53.398;-1.514;2022-11-20T09:19:38;5.82;;;1.98;;
21103;SDS011;10710;53.398;-1.514;2022-11-20T09:22:05;13.43;;;2.17;;
21103;SDS011;10710;53.398;-1.514;2022-11-20T09:24:31;7.35;;;2.38;;
21103;SDS011;10710;53.398;-1.514;2022-11-20T09:26:57;2.70;;;2.00;;
21103;SDS011;10710;53.398;-1.514;2022-11-20T09:29:23;10.80;;;1.73;;
21103;SDS011;10710;53.398;-1.514;2022-11-20T09:31:49;6.30;;;1.77;;
21103;SDS011;10710;53.398;-1.514;2022-11-20T09:34:15;7.20;;;1.85;;
21103;SDS011;10710;53.398;-1.514;2022-11-20T09:36:41;3.55;;;1.55;;
21103;SDS011;10710;53.398;-1.514;2022-11-20T09:39:07;3.57;;;1.47;;
21103;SDS011;10710;53.398;-1.514;2022-11-20T09:46:44;8.23;;;2.20;;
21103;SDS011;10710;53.398;-1.514;2022-11-20T09:55:30;10.40;;;2.07;;
21103;SDS011;10710;53.398;-1.514;2022-11-20T09:57:57;5.72;;;1.80;;
21103;SDS011;10710;53.398;-1.514;2022-11-20T10:00:24;6.18;;;2.50;;
21103;SDS011;10710;53.398;-1.514;2022-11-20T10:05:19;7.18;;;2.22;;
21103;SDS011;10710;53.398;-1.514;2022-11-20T10:10:53;6.00;;;2.15;;
21103;SDS011;10710;53.398;-1.514;2022-11-20T10:13:40;4.03;;;1.70;;
21103;SDS011;10710;53.398;-1.514;2022-11-20T10:18:58;6.13;;;2.10;;
21103;SDS011;10710;53.398;-1.514;2022-11-20T10:21:36;4.82;;;1.90;;
21103;SDS011;10710;53.398;-1.514;2022-11-20T10:32:52;4.40;;;1.60;;
21103;SDS011;10710;53.398;-1.514;2022-11-20T10:36:14;5.03;;;1.70;;
21103;SDS011;10710;53.398;-1.514;2022-11-20T10:38:46;3.80;;;1.40;;
21103;SDS011;10710;53.398;-1.514;2022-11-20T10:41:40;4.50;;;1.30;;
21103;SDS011;10710;53.398;-1.514;2022-11-20T10:44:27;6.57;;;1.97;;
21103;SDS011;10710;53.398;-1.514;2022-11-20T10:47:17;4.97;;;1.65;;
21103;SDS011;10710;53.398;-1.514;2022-11-20T10:49:46;2.95;;;1.55;;
21103;SDS011;10710;53.398;-1.514;2022-11-20T11:00:34;5.30;;;1.60;;
21103;SDS011;10710;53.398;-1.514;2022-11-20T11:03:00;6.03;;;1.87;;
21103;SDS011;10710;53.398;-1.514;2022-11-20T11:05:33;6.43;;;1.87;;
21103;SDS011;10710;53.398;-1.514;2022-11-20T11:08:10;8.20;;;2.20;;
21103;SDS011;10710;53.398;-1.514;2022-11-20T11:10:42;13.73;;;3.13;;
21103;SDS011;10710;53.398;-1.514;2022-11-20T11:13:24;11.23;;;2.53;;
21103;SDS011;10710;53.398;-1.514;2022-11-20T11:15:52;8.20;;;2.05;;
21103;SDS011;10710;53.398;-1.514;2022-11-20T11:18:28;6.35;;;1.70;;
21103;SDS011;10710;53.398;-1.514;2022-11-20T11:20:56;3.80;;;2.00;;
21103;SDS011;10710;53.398;-1.514;2022-11-20T11:26:07;6.03;;;1.80;;
21103;SDS011;10710;53.398;-1.514;2022-11-20T11:28:58;12.75;;;2.20;;
21103;SDS011;10710;53.398;-1.514;2022-11-20T11:31:26;9.98;;;2.28;;
21103;SDS011;10710;53.398;-1.514;2022-11-20T11:36:32;4.90;;;2.03;;
21103;SDS011;10710;53.398;-1.514;2022-11-20T11:39:00;5.90;;;1.50;;
21103;SDS011;10710;53.398;-1.514;2022-11-20T11:41:28;4.10;;;1.55;;
21103;SDS011;10710;53.398;-1.514;2022-11-20T11:44:16;11.93;;;2.13;;
21103;SDS011;10710;53.398;-1.514;2022-11-20T11:47:04;11.10;;;1.98;;
21103;SDS011;10710;53.398;-1.514;2022-11-20T11:49:35;8.38;;;2.60;;
21103;SDS011;10710;53.398;-1.514;2022-11-20T11:57:37;3.95;;;1.27;;
21103;SDS011;10710;53.398;-1.514;2022-11-20T12:00:14;4.07;;;1.83;;
21103;SDS011;10710;53.398;-1.514;2022-11-20T12:05:31;5.38;;;1.90;;
21103;SDS011;10710;53.398;-1.514;2022-11-20T12:13:21;5.17;;;1.30;;
21103;SDS011;10710;53.398;-1.514;2022-11-20T12:16:11;7.05;;;1.65;;
21103;SDS011;10710;53.398;-1.514;2022-11-20T12:18:39;4.88;;;1.38;;
21103;SDS011;10710;53.398;-1.514;2022-11-20T12:21:20;9.68;;;2.35;;
21103;SDS011;10710;53.398;-1.514;2022-11-20T12:24:02;7.30;;;1.30;;
21103;SDS011;10710;53.398;-1.514;2022-11-20T12:30:07;6.40;;;1.90;;
21103;SDS011;10710;53.398;-1.514;2022-11-20T12:36:14;8.10;;;1.67;;
21103;SDS011;10710;53.398;-1.514;2022-11-20T12:38:20;4.07;;;1.20;;
21103;SDS011;10710;53.398;-1.514;2022-11-20T12:55:36;4.47;;;1.55;;
21103;SDS011;10710;53.398;-1.514;2022-11-20T12:59:10;3.60;;;1.30;;
21103;SDS011;10710;53.398;-1.514;2022-11-20T13:01:44;10.57;;;1.45;;
21103;SDS011;10710;53.398;-1.514;2022-11-20T13:04:24;6.55;;;1.85;;
21103;SDS011;10710;53.398;-1.514;2022-11-20T13:07:10;10.38;;;1.52;;
21103;SDS011;10710;53.398;-1.514;2022-11-20T13:09:48;5.30;;;1.00;;
21103;SDS011;10710;53.398;-1.514;2022-11-20T13:15:03;7.15;;;1.75;;
21103;SDS011;10710;53.398;-1.514;2022-11-20T13:17:45;5.80;;;1.73;;
21103;SDS011;10710;53.398;-1.514;2022-11-20T13:20:16;4.95;;;1.30;;
21103;SDS011;10710;53.398;-1.514;2022-11-20T13:22:45;7.78;;;1.90;;
21103;SDS011;10710;53.398;-1.514;2022-11-20T13:27:49;5.88;;;1.20;;
21103;SDS011;10710;53.398;-1.514;2022-11-20T13:30:16;9.95;;;1.40;;
21103;SDS011;10710;53.398;-1.514;2022-11-20T13:35:37;9.57;;;2.10;;
21103;SDS011;10710;53.398;-1.514;2022-11-20T13:41:00;9.23;;;2.15;;
21103;SDS011;10710;53.398;-1.514;2022-11-20T13:43:49;9.02;;;2.08;;
21103;SDS011;10710;53.398;-1.514;2022-11-20T13:46:15;7.20;;;1.80;;
21103;SDS011;10710;53.398;-1.514;2022-11-20T13:48:42;5.93;;;1.67;;
21103;SDS011;10710;53.398;-1.514;2022-11-20T13:56:43;6.25;;;1.77;;
21103;SDS011;10710;53.398;-1.514;2022-11-20T14:02:15;9.55;;;2.15;;
21103;SDS011;10710;53.398;-1.514;2022-11-20T14:04:45;9.53;;;1.70;;
21103;SDS011;10710;53.398;-1.514;2022-11-20T14:07:16;9.45;;;1.80;;
21103;SDS011;10710;53.398;-1.514;2022-11-20T14:10:03;8.60;;;2.10;;
21103;SDS011;10710;53.398;-1.514;2022-11-20T14:12:31;9.63;;;1.77;;
21103;SDS011;10710;53.398;-1.514;2022-11-20T14:14:58;6.72;;;1.77;;
21103;SDS011;10710;53.398;-1.514;2022-11-20T14:19:54;10.30;;;1.40;;
21103;SDS011;10710;53.398;-1.514;2022-11-20T14:22:24;8.80;;;2.22;;
21103;SDS011;10710;53.398;-1.514;2022-11-20T14:25:36;9.35;;;1.95;;
21103;SDS011;10710;53.398;-1.514;2022-11-20T14:27:38;13.93;;;1.80;;
21103;SDS011;10710;53.398;-1.514;2022-11-20T14:30:12;8.23;;;1.80;;
21103;SDS011;10710;53.398;-1.514;2022-11-20T14:32:39;6.70;;;1.93;;
21103;SDS011;10710;53.398;-1.514;2022-11-20T14:35:10;4.15;;;1.42;;
21103;SDS011;10710;53.398;-1.514;2022-11-20T14:37:46;11.23;;;1.48;;
21103;SDS011;10710;53.398;-1.514;2022-11-20T14:42:55;3.33;;;1.55;;
21103;SDS011;10710;53.398;-1.514;2022-11-20T14:45:23;6.20;;;1.83;;
21103;SDS011;10710;53.398;-1.514;2022-11-20T14:47:55;7.25;;;1.65;;
21103;SDS011;10710;53.398;-1.514;2022-11-20T14:50:26;12.43;;;2.15;;
21103;SDS011;10710;53.398;-1.514;2022-11-20T14:52:54;6.73;;;1.40;;
21103;SDS011;10710;53.398;-1.514;2022-11-20T14:55:39;5.43;;;1.60;;
21103;SDS011;10710;53.398;-1.514;2022-11-20T14:58:28;5.50;;;1.67;;
21103;SDS011;10710;53.398;-1.514;2022-11-20T15:00:57;8.57;;;2.10;;
21103;SDS011;10710;53.398;-1.514;2022-11-20T15:03:35;6.25;;;2.15;;
21103;SDS011;10710;53.398;-1.514;2022-11-20T15:06:03;13.52;;;3.92;;
21103;SDS011;10710;53.398;-1.514;2022-11-20T15:08:31;9.43;;;2.20;;
21103;SDS011;10710;53.398;-1.514;2022-11-20T15:10:57;9.68;;;2.10;;
21103;SDS011;10710;53.398;-1.514;2022-11-20T15:13:34;6.07;;;1.73;;
21103;SDS011;10710;53.398;-1.514;2022-11-20T15:16:03;10.73;;;2.20;;
21103;SDS011;10710;53.398;-1.514;2022-11-20T15:18:43;14.32;;;2.63;;
21103;SDS011;10710;53.398;-1.514;2022-11-20T15:21:13;5.25;;;2.35;;
21103;SDS011;10710;53.398;-1.514;2022-11-20T15:23:41;5.95;;;1.75;;
21103;SDS011;10710;53.398;-1.514;2022-11-20T15:26:09;8.32;;;2.22;;
21103;SDS011;10710;53.398;-1.514;2022-11-20T15:28:39;7.28;;;2.13;;
21103;SDS011;10710;53.398;-1.514;2022-11-20T15:31:14;6.72;;;2.13;;
21103;SDS011;10710;53.398;-1.514;2022-11-20T15:33:42;7.50;;;2.30;;
21103;SDS011;10710;53.398;-1.514;2022-11-20T15:36:08;11.90;;;2.72;;
21103;SDS011;10710;53.398;-1.514;2022-11-20T15:38:35;9.48;;;1.88;;
21103;SDS011;10710;53.398;-1.514;2022-11-20T15:41:01;8.60;;;2.28;;
21103;SDS011;10710;53.398;-1.514;2022-11-20T15:43:27;4.43;;;1.67;;
21103;SDS011;10710;53.398;-1.514;2022-11-20T15:45:55;2.80;;;0.90;;
21103;SDS011;10710;53.398;-1.514;2022-11-20T15:48:25;3.30;;;1.13;;
21103;SDS011;10710;53.398;-1.514;2022-11-20T15:53:36;4.50;;;1.05;;
21103;SDS011;10710;53.398;-1.514;2022-11-20T15:56:02;2.87;;;0.97;;
21103;SDS011;10710;53.398;-1.514;2022-11-20T15:58:29;4.80;;;1.20;;
21103;SDS011;10710;53.398;-1.514;2022-11-20T16:00:55;4.90;;;0.90;;
21103;SDS011;10710;53.398;-1.514;2022-11-20T16:03:21;5.97;;;1.00;;
21103;SDS011;10710;53.398;-1.514;2022-11-20T16:05:48;3.92;;;1.65;;
21103;SDS011;10710;53.398;-1.514;2022-11-20T16:08:14;0.95;;;0.73;;
21103;SDS011;10710;53.398;-1.514;2022-11-20T16:10:40;3.00;;;0.80;;
21103;SDS011;10710;53.398;-1.514;2022-11-20T16:13:13;1.75;;;1.25;;
21103;SDS011;10710;53.398;-1.514;2022-11-20T16:16:01;0.95;;;0.73;;
21103;SDS011;10710;53.398;-1.514;2022-11-20T16:18:32;3.10;;;1.83;;
21103;SDS011;10710;53.398;-1.514;2022-11-20T16:20:58;0.47;;;0.35;;
21103;SDS011;10710;53.398;-1.514;2022-11-20T16:23:24;1.10;;;0.47;;
21103;SDS011;10710;53.398;-1.514;2022-11-20T16:25:50;0.40;;;0.40;;
21103;SDS011;10710;53.398;-1.514;2022-11-20T16:28:16;0.40;;;0.40;;
21103;SDS011;10710;53.398;-1.514;2022-11-20T16:30:43;0.40;;;0.40;;
21103;SDS011;10710;53.398;-1.514;2022-11-20T16:33:09;1.73;;;0.70;;
21103;SDS011;10710;53.398;-1.514;2022-11-20T16:35:37;2.28;;;0.82;;
21103;SDS011;10710;53.398;-1.514;2022-11-20T16:38:04;0.30;;;0.30;;
21103;SDS011;10710;53.398;-1.514;2022-11-20T16:40:30;0.40;;;0.40;;
21103;SDS011;10710;53.398;-1.514;2022-11-20T16:42:56;0.90;;;0.50;;
21103;SDS011;10710;53.398;-1.514;2022-11-20T16:45:23;0.40;;;0.35;;
21103;SDS011;10710;53.398;-1.514;2022-11-20T16:47:49;1.80;;;0.40;;
21103;SDS011;10710;53.398;-1.514;2022-11-20T16:50:15;1.73;;;1.00;;